Time;durP1;ratioP1;P1;durP2;ratioP2;P2;SDS_P1;SDS_P2;PMS_P1;PMS_P2;Temp;Humidity;BMP_temperature;BMP_pressure;BME280_temperature;BME280_humidity;BME280_pressure;Samples;Min_cycle;Max_cycle;Signal;HPM_P1;HPM_P2
2022/04/24 00:01:27;;;;;;;;;;;;;;;;;;5040518;28;20388;-81
2022/04/24 00:03:53;;;;;;;;;;;;;;;;;;5027740;28;20348;-80
2022/04/24 00:06:20;;;;;;;;;;;;;;;;;;5054398;28;20650;-81
2022/04/24 00:08:46;;;;;;;;;;;;;;;;;;5044987;28;19944;-81
2022/04/24 00:11:12;;;;;;;;;;;;;;;;;;5060054;28;19936;-82
2022/04/24 00:13:41;;;;;;;;;;;;;;;;;;5020509;28;20373;-81
2022/04/24 00:16:07;;;;;;;;;;;;;;;;;;5044260;28;19956;-82
2022/04/24 00:18:34;;;;;;;;;;;;;;;;;;5039349;28;19940;-82
2022/04/24 00:21:01;;;;;;;;;;;;;;;;;;5051685;28;19948;-81
2022/04/24 00:23:27;;;;;;;;;;;;;;;;;;5046817;28;19952;-82
2022/04/24 00:25:53;;;;;;;;;;;;;;;;;;5071302;28;20009;-83
2022/04/24 00:28:19;;;;;;;;;;;;;;;;;;5052436;28;19964;-82
2022/04/24 00:30:46;;;;;;;;;;;;;;;;;;5051332;28;20391;-82
2022/04/24 00:33:12;;;;;;;;;;;;;;;;;;5039644;28;19924;-82
2022/04/24 00:35:38;;;;;;;;;;;;;;;;;;5032549;28;20002;-82
2022/04/24 00:38:04;;;;;;;;;;;;;;;;;;5040885;28;19984;-81
2022/04/24 00:40:30;;;;;;;;;;;;;;;;;;5053561;28;19960;-81
2022/04/24 00:42:57;;;;;;;;;;;;;;;;;;5050668;28;19954;-82
2022/04/24 00:45:23;;;;;;;;;;;;;;;;;;5047156;28;19949;-82
2022/04/24 00:47:49;;;;;;;;;;;;;;;;;;5040746;28;19948;-82
2022/04/24 00:50:15;;;;;;;;;;;;;;;;;;5063524;28;20442;-82
2022/04/24 00:52:41;;;;;;;;;;;;;;;;;;5038692;28;19956;-82
2022/04/24 00:55:07;;;;;;;;;;;;;;;;;;5051511;28;21364;-82
2022/04/24 00:57:34;;;;;;;;;;;;;;;;;;5035180;28;19952;-82
2022/04/24 01:00:00;;;;;;;;;;;;;;;;;;5046198;28;19955;-82
2022/04/24 01:02:26;;;;;;;;;;;;;;;;;;5036172;28;20013;-81
2022/04/24 01:04:52;;;;;;;;;;;;;;;;;;5056062;28;19959;-81
2022/04/24 01:07:18;;;;;;;;;;;;;;;;;;5049767;28;19971;-81
2022/04/24 01:09:45;;;;;;;;;;;;;;;;;;5051052;28;20453;-82
2022/04/24 01:12:11;;;;;;;;;;;;;;;;;;5031131;28;19913;-82
2022/04/24 01:14:37;;;;;;;;;;;;;;;;;;5061971;28;20005;-81
2022/04/24 01:17:03;;;;;;;;;;;;;;;;;;5057184;28;20553;-81
2022/04/24 01:19:29;;;;;;;;;;;;;;;;;;5068966;28;19964;-81
2022/04/24 01:21:56;;;;;;;;;;;;;;;;;;5054074;28;19948;-81
2022/04/24 01:24:22;;;;;;;;;;;;;;;;;;5044080;28;19952;-81
2022/04/24 01:26:48;;;;;;;;;;;;;;;;;;5067901;28;19957;-81
2022/04/24 01:29:16;;;;;;;;;;;;;;;;;;5055387;28;19913;-81
2022/04/24 01:31:44;;;;;;;;;;;;;;;;;;5043900;28;20320;-81
2022/04/24 01:34:10;;;;;;;;;;;;;;;;;;5035459;28;19948;-81
2022/04/24 01:36:36;;;;;;;;;;;;;;;;;;5046964;28;19958;-81
2022/04/24 01:39:03;;;;;;;;;;;;;;;;;;5051774;28;19947;-81
2022/04/24 01:41:29;;;;;;;;;;;;;;;;;;5036033;28;20512;-81
2022/04/24 01:43:55;;;;;;;;;;;;;;;;;;5037134;28;19967;-81
2022/04/24 01:46:21;;;;;;;;;;;;;;;;;;5044883;28;19960;-81
2022/04/24 01:48:47;;;;;;;;;;;;;;;;;;5054738;28;19944;-81
2022/04/24 01:51:14;;;;;;;;;;;;;;;;;;5049445;28;19960;-81
2022/04/24 01:53:41;;;;;;;;;;;;;;;;;;5052320;28;20939;-80
2022/04/24 01:56:07;;;;;;;;;;;;;;;;;;5027402;28;19962;-81
2022/04/24 01:58:33;;;;;;;;;;;;;;;;;;5048802;28;19964;-81
2022/04/24 02:00:59;;;;;;;;;;;;;;;;;;5066355;28;20418;-81
2022/04/24 02:03:26;;;;;;;;;;;;;;;;;;5027851;28;19917;-81
2022/04/24 02:05:52;;;;;;;;;;;;;;;;;;5054249;28;19999;-81
2022/04/24 02:08:18;;;;;;;;;;;;;;;;;;5040471;28;19967;-81
2022/04/24 02:10:45;;;;;;;;;;;;;;;;;;5061946;28;19928;-81
2022/04/24 02:13:11;;;;;;;;;;;;;;;;;;5037862;28;19956;-80
2022/04/24 02:15:37;;;;;;;;;;;;;;;;;;5040808;28;20010;-81
2022/04/24 02:18:03;;;;;;;;;;;;;;;;;;5052573;28;19956;-82
2022/04/24 02:20:29;;;;;;;;;;;;;;;;;;5037127;28;19960;-81
2022/04/24 02:22:57;;;;;;;;;;;;;;;;;;5025607;28;19956;-81
2022/04/24 02:25:23;;;;;;;;;;;;;;;;;;5033831;28;19917;-82
2022/04/24 02:27:49;;;;;;;;;;;;;;;;;;5039880;28;19983;-81
2022/04/24 02:30:16;;;;;;;;;;;;;;;;;;5039320;28;20463;-81
2022/04/24 02:32:42;;;;;;;;;;;;;;;;;;5030803;28;19959;-82
2022/04/24 02:35:08;;;;;;;;;;;;;;;;;;5049465;28;19967;-81
2022/04/24 02:37:34;;;;;;;;;;;;;;;;;;5046998;28;19935;-82
2022/04/24 02:40:00;;;;;;;;;;;;;;;;;;5043957;28;19971;-81
2022/04/24 02:42:27;;;;;;;;;;;;;;;;;;5050131;28;20345;-81
2022/04/24 02:44:53;;;;;;;;;;;;;;;;;;5038399;28;20052;-81
2022/04/24 02:47:19;;;;;;;;;;;;;;;;;;5044257;28;19948;-82
2022/04/24 02:49:45;;;;;;;;;;;;;;;;;;5037981;28;19957;-82
2022/04/24 02:52:11;;;;;;;;;;;;;;;;;;5044654;28;20051;-81
2022/04/24 02:54:39;;;;;;;;;;;;;;;;;;5046431;28;19952;-82
2022/04/24 02:57:05;;;;;;;;;;;;;;;;;;5052122;28;19964;-81
2022/04/24 02:59:32;;;;;;;;;;;;;;;;;;5021694;28;20370;-81
2022/04/24 03:01:58;;;;;;;;;;;;;;;;;;5046666;28;20024;-81
2022/04/24 03:04:24;;;;;;;;;;;;;;;;;;5047341;28;19963;-81
2022/04/24 03:06:50;;;;;;;;;;;;;;;;;;5043994;28;20345;-81
2022/04/24 03:09:16;;;;;;;;;;;;;;;;;;5048300;28;19952;-80
2022/04/24 03:11:43;;;;;;;;;;;;;;;;;;5046232;28;19948;-81
2022/04/24 03:14:09;;;;;;;;;;;;;;;;;;5050416;28;19964;-81
2022/04/24 03:16:35;;;;;;;;;;;;;;;;;;5052773;28;19972;-81
2022/04/24 03:19:01;;;;;;;;;;;;;;;;;;5037047;28;19951;-81
2022/04/24 03:21:29;;;;;;;;;;;;;;;;;;5044948;28;19955;-81
2022/04/24 03:23:55;;;;;;;;;;;;;;;;;;5045902;28;19952;-81
2022/04/24 03:26:21;;;;;;;;;;;;;;;;;;5036163;28;20343;-82
2022/04/24 03:28:47;;;;;;;;;;;;;;;;;;5048139;28;19959;-81
2022/04/24 03:31:13;;;;;;;;;;;;;;;;;;5045164;28;19968;-81
2022/04/24 03:33:39;;;;;;;;;;;;;;;;;;5038062;28;19963;-81
2022/04/24 03:36:06;;;;;;;;;;;;;;;;;;5049440;28;19986;-81
2022/04/24 03:38:32;;;;;;;;;;;;;;;;;;5046868;28;19963;-81
2022/04/24 03:40:58;;;;;;;;;;;;;;;;;;5064171;28;19952;-81
2022/04/24 03:43:24;;;;;;;;;;;;;;;;;;5045392;28;19994;-81
2022/04/24 03:45:50;;;;;;;;;;;;;;;;;;5051699;28;19956;-81
2022/04/24 03:48:17;;;;;;;;;;;;;;;;;;5043946;28;19952;-82
2022/04/24 03:50:43;;;;;;;;;;;;;;;;;;5051311;28;20013;-81
2022/04/24 03:53:09;;;;;;;;;;;;;;;;;;5059904;28;19948;-82
2022/04/24 03:55:35;;;;;;;;;;;;;;;;;;5029308;28;19921;-82
2022/04/24 03:58:01;;;;;;;;;;;;;;;;;;5032521;28;19959;-81
2022/04/24 04:00:28;;;;;;;;;;;;;;;;;;5045514;28;19948;-82
2022/04/24 04:02:54;;;;;;;;;;;;;;;;;;5049777;28;20018;-82
2022/04/24 04:05:22;;;;;;;;;;;;;;;;;;5042222;28;19932;-81
2022/04/24 04:07:48;;;;;;;;;;;;;;;;;;5058772;28;20416;-81
2022/04/24 04:10:14;;;;;;;;;;;;;;;;;;5051837;28;19952;-81
2022/04/24 04:12:40;;;;;;;;;;;;;;;;;;5044081;28;19928;-81
2022/04/24 04:15:07;;;;;;;;;;;;;;;;;;5050264;28;19960;-81
2022/04/24 04:17:33;;;;;;;;;;;;;;;;;;5017762;28;19960;-80
2022/04/24 04:19:59;;;;;;;;;;;;;;;;;;5042348;28;20535;-80
2022/04/24 04:22:25;;;;;;;;;;;;;;;;;;5039176;28;20383;-82
2022/04/24 04:24:52;;;;;;;;;;;;;;;;;;5021542;28;19952;-81
2022/04/24 04:27:18;;;;;;;;;;;;;;;;;;5037316;28;19964;-82
2022/04/24 04:29:45;;;;;;;;;;;;;;;;;;5036875;28;20021;-82
2022/04/24 04:32:11;;;;;;;;;;;;;;;;;;5058709;28;20021;-82
2022/04/24 04:34:37;;;;;;;;;;;;;;;;;;5046391;28;19920;-82
2022/04/24 04:37:03;;;;;;;;;;;;;;;;;;5064979;28;20184;-82
2022/04/24 04:39:29;;;;;;;;;;;;;;;;;;5045207;28;20373;-81
2022/04/24 04:41:56;;;;;;;;;;;;;;;;;;5056460;28;19959;-80
2022/04/24 04:44:22;;;;;;;;;;;;;;;;;;5053768;28;19952;-81
2022/04/24 04:46:48;;;;;;;;;;;;;;;;;;5070542;28;19960;-80
2022/04/24 04:49:14;;;;;;;;;;;;;;;;;;5046781;28;19956;-80
2022/04/24 04:51:40;;;;;;;;;;;;;;;;;;5038555;28;19965;-80
2022/04/24 04:54:06;;;;;;;;;;;;;;;;;;5036610;28;19949;-80
2022/04/24 04:56:33;;;;;;;;;;;;;;;;;;5058253;28;19944;-80
2022/04/24 04:58:59;;;;;;;;;;;;;;;;;;5057509;28;19948;-83
2022/04/24 05:01:25;;;;;;;;;;;;;;;;;;5050368;28;19956;-82
2022/04/24 05:03:52;;;;;;;;;;;;;;;;;;5054920;28;20046;-81
2022/04/24 05:06:18;;;;;;;;;;;;;;;;;;5059343;28;19924;-81
2022/04/24 05:08:44;;;;;;;;;;;;;;;;;;5056343;28;19916;-81
2022/04/24 05:11:10;;;;;;;;;;;;;;;;;;5050616;28;19964;-81
2022/04/24 05:13:36;;;;;;;;;;;;;;;;;;5049569;28;19944;-81
2022/04/24 05:16:03;;;;;;;;;;;;;;;;;;5053147;28;19948;-80
2022/04/24 05:18:29;;;;;;;;;;;;;;;;;;5066830;28;19921;-79
2022/04/24 05:20:56;;;;;;;;;;;;;;;;;;5038617;28;20467;-79
2022/04/24 05:23:22;;;;;;;;;;;;;;;;;;5065706;28;19959;-80
2022/04/24 05:25:48;;;;;;;;;;;;;;;;;;5051155;28;19953;-79
2022/04/24 05:28:15;;;;;;;;;;;;;;;;;;5059232;28;19929;-79
2022/04/24 05:30:41;;;;;;;;;;;;;;;;;;5053392;28;20431;-79
2022/04/24 05:33:07;;;;;;;;;;;;;;;;;;5048999;28;19940;-80
2022/04/24 05:35:33;;;;;;;;;;;;;;;;;;5033095;28;20404;-80
2022/04/24 05:38:00;;;;;;;;;;;;;;;;;;5048019;28;20350;-80
2022/04/24 05:40:26;;;;;;;;;;;;;;;;;;5048908;28;19962;-81
2022/04/24 05:42:53;;;;;;;;;;;;;;;;;;5032512;28;20518;-81
2022/04/24 05:45:22;;;;;;;;;;;;;;;;;;5051298;28;20043;-81
2022/04/24 05:47:48;;;;;;;;;;;;;;;;;;5038447;28;19948;-81
2022/04/24 05:50:14;;;;;;;;;;;;;;;;;;5068500;28;19917;-80
2022/04/24 05:52:40;;;;;;;;;;;;;;;;;;5063790;28;20429;-80
2022/04/24 05:55:07;;;;;;;;;;;;;;;;;;5044043;28;19949;-80
2022/04/24 05:57:33;;;;;;;;;;;;;;;;;;5045138;28;19913;-81
2022/04/24 05:59:59;;;;;;;;;;;;;;;;;;5048080;28;19940;-80
2022/04/24 06:02:25;;;;;;;;;;;;;;;;;;5065178;28;19917;-81
2022/04/24 06:04:51;;;;;;;;;;;;;;;;;;5049646;28;19948;-80
2022/04/24 06:07:18;;;;;;;;;;;;;;;;;;5064598;28;20022;-81
2022/04/24 06:09:44;;;;;;;;;;;;;;;;;;5032599;28;19948;-82
2022/04/24 06:12:10;;;;;;;;;;;;;;;;;;5056122;28;19960;-81
2022/04/24 06:14:36;;;;;;;;;;;;;;;;;;5044355;28;19967;-82
2022/04/24 06:17:03;;;;;;;;;;;;;;;;;;5032540;28;19941;-81
2022/04/24 06:19:29;;;;;;;;;;;;;;;;;;5023286;28;19980;-82
2022/04/24 06:21:55;;;;;;;;;;;;;;;;;;5049274;28;19956;-82
2022/04/24 06:24:21;;;;;;;;;;;;;;;;;;5037948;28;19975;-82
2022/04/24 06:26:48;;;;;;;;;;;;;;;;;;5044135;28;19952;-81
2022/04/24 06:29:14;;;;;;;;;;;;;;;;;;5032223;28;19944;-81
2022/04/24 06:31:40;;;;;;;;;;;;;;;;;;5027938;28;19925;-82
2022/04/24 06:34:06;;;;;;;;;;;;;;;;;;5057697;28;19952;-82
2022/04/24 06:36:33;;;;;;;;;;;;;;;;;;5040212;28;19952;-82
2022/04/24 06:39:00;;;;;;;;;;;;;;;;;;5052696;28;20010;-81
2022/04/24 06:41:29;;;;;;;;;;;;;;;;;;5043675;28;20443;-82
2022/04/24 06:43:55;;;;;;;;;;;;;;;;;;5048776;28;20427;-81
2022/04/24 06:46:23;;;;;;;;;;;;;;;;;;5040756;28;19952;-81
2022/04/24 06:48:49;;;;;;;;;;;;;;;;;;5051759;28;19948;-81
2022/04/24 06:51:15;;;;;;;;;;;;;;;;;;5045952;28;19956;-83
2022/04/24 06:53:42;;;;;;;;;;;;;;;;;;5044813;28;19955;-80
2022/04/24 06:56:08;;;;;;;;;;;;;;;;;;5048926;28;19952;-80
2022/04/24 06:58:35;;;;;;;;;;;;;;;;;;5051034;28;19920;-80
2022/04/24 07:01:01;;;;;;;;;;;;;;;;;;5048771;28;19955;-81
2022/04/24 07:03:27;;;;;;;;;;;;;;;;;;5039119;28;19948;-80
2022/04/24 07:05:53;;;;;;;;;;;;;;;;;;5048851;28;20307;-81
2022/04/24 07:08:19;;;;;;;;;;;;;;;;;;5026038;28;19956;-82
2022/04/24 07:10:46;;;;;;;;;;;;;;;;;;5037204;28;20360;-81
2022/04/24 07:13:12;;;;;;;;;;;;;;;;;;5063302;28;19956;-81
2022/04/24 07:15:41;;;;;;;;;;;;;;;;;;5039301;28;20659;-81
2022/04/24 07:18:16;;;;;;;;;;;;;;;;;;5060798;28;20346;-80
2022/04/24 07:20:42;;;;;;;;;;;;;;;;;;5063807;28;19956;-81
2022/04/24 07:23:08;;;;;;;;;;;;;;;;;;5049826;28;19999;-82
2022/04/24 07:25:35;;;;;;;;;;;;;;;;;;5043786;28;20031;-80
2022/04/24 07:28:01;;;;;;;;;;;;;;;;;;5052826;28;20351;-78
2022/04/24 07:30:27;;;;;;;;;;;;;;;;;;5046358;28;20023;-80
2022/04/24 07:32:53;;;;;;;;;;;;;;;;;;5039859;28;19953;-79
2022/04/24 07:35:19;;;;;;;;;;;;;;;;;;5053846;28;19948;-80
2022/04/24 07:37:46;;;;;;;;;;;;;;;;;;5033385;28;19913;-77
2022/04/24 07:40:12;;;;;;;;;;;;;;;;;;5040530;28;19959;-79
2022/04/24 07:42:38;;;;;;;;;;;;;;;;;;5052692;28;19954;-78
2022/04/24 07:45:04;;;;;;;;;;;;;;;;;;5067599;28;19967;-79
2022/04/24 07:47:30;;;;;;;;;;;;;;;;;;5045174;28;19978;-80
2022/04/24 07:49:57;;;;;;;;;;;;;;;;;;5042446;28;19957;-80
2022/04/24 07:52:23;;;;;;;;;;;;;;;;;;5055999;28;19949;-78
2022/04/24 07:54:51;;;;;;;;;;;;;;;;;;5055761;28;19997;-77
2022/04/24 07:57:17;;;;;;;;;;;;;;;;;;5051253;28;19963;-78
2022/04/24 07:59:44;;;;;;;;;;;;;;;;;;5036701;28;19953;-78
2022/04/24 08:02:10;;;;;;;;;;;;;;;;;;5047970;28;19956;-78
2022/04/24 08:04:36;;;;;;;;;;;;;;;;;;5034775;28;20015;-78
2022/04/24 08:07:02;;;;;;;;;;;;;;;;;;5055203;28;19967;-78
2022/04/24 08:09:29;;;;;;;;;;;;;;;;;;5036655;28;19986;-80
2022/04/24 08:12:12;;;;;;;;;;;;;;;;;;5056761;28;19956;-79
2022/04/24 08:14:45;;;;;;;;;;;;;;;;;;5063812;28;19954;-77
2022/04/24 08:17:11;;;;;;;;;;;;;;;;;;5052766;28;19960;-79
2022/04/24 08:19:37;;;;;;;;;;;;;;;;;;5041170;28;20395;-77
2022/04/24 08:22:04;;;;;;;;;;;;;;;;;;5046775;28;19967;-77
2022/04/24 08:24:32;;;;;;;;;;;;;;;;;;5026571;28;19921;-77
2022/04/24 08:26:59;;;;;;;;;;;;;;;;;;5037452;28;19960;-78
2022/04/24 08:29:25;;;;;;;;;;;;;;;;;;5060474;28;20067;-78
2022/04/24 08:31:51;;;;;;;;;;;;;;;;;;5059533;28;19987;-78
2022/04/24 08:34:17;;;;;;;;;;;;;;;;;;5033433;28;20372;-78
2022/04/24 08:36:43;;;;;;;;;;;;;;;;;;5037854;28;19952;-78
2022/04/24 08:39:10;;;;;;;;;;;;;;;;;;5055909;28;19956;-78
2022/04/24 08:41:36;;;;;;;;;;;;;;;;;;5044550;28;19956;-77
2022/04/24 08:44:02;;;;;;;;;;;;;;;;;;5052041;28;19952;-77
2022/04/24 08:46:29;;;;;;;;;;;;;;;;;;5055285;28;19913;-78
2022/04/24 08:48:55;;;;;;;;;;;;;;;;;;5040556;28;20009;-78
2022/04/24 08:51:21;;;;;;;;;;;;;;;;;;5044699;28;19960;-78
2022/04/24 08:53:47;;;;;;;;;;;;;;;;;;5040369;28;19947;-78
2022/04/24 08:56:13;;;;;;;;;;;;;;;;;;5050265;28;19925;-77
2022/04/24 08:58:40;;;;;;;;;;;;;;;;;;5045152;28;20380;-78
2022/04/24 09:01:06;;;;;;;;;;;;;;;;;;5044704;28;19972;-77
2022/04/24 09:03:32;;;;;;;;;;;;;;;;;;5055956;28;19961;-79
2022/04/24 09:05:58;;;;;;;;;;;;;;;;;;5029232;28;20325;-77
2022/04/24 09:08:24;;;;;;;;;;;;;;;;;;5028158;28;19964;-77
2022/04/24 09:10:51;;;;;;;;;;;;;;;;;;5056821;28;19956;-78
2022/04/24 09:13:17;;;;;;;;;;;;;;;;;;5040765;28;19960;-78
2022/04/24 09:15:43;;;;;;;;;;;;;;;;;;5039497;28;19974;-77
2022/04/24 09:18:09;;;;;;;;;;;;;;;;;;5040137;28;19952;-77
2022/04/24 09:20:36;;;;;;;;;;;;;;;;;;5049240;28;19972;-78
2022/04/24 09:23:02;;;;;;;;;;;;;;;;;;5052836;28;19998;-77
2022/04/24 09:25:28;;;;;;;;;;;;;;;;;;5046109;28;19944;-77
2022/04/24 09:27:55;;;;;;;;;;;;;;;;;;5017837;28;19957;-78
2022/04/24 09:30:25;;;;;;;;;;;;;;;;;;5034290;28;19964;-78
2022/04/24 09:32:51;;;;;;;;;;;;;;;;;;5030776;28;19960;-78
2022/04/24 09:35:17;;;;;;;;;;;;;;;;;;5045052;28;20410;-78
2022/04/24 09:37:43;;;;;;;;;;;;;;;;;;5042397;28;19952;-76
2022/04/24 09:40:10;;;;;;;;;;;;;;;;;;5067498;28;19956;-77
2022/04/24 09:42:36;;;;;;;;;;;;;;;;;;5050428;28;24981;-76
2022/04/24 09:45:02;;;;;;;;;;;;;;;;;;5036086;28;20110;-76
2022/04/24 09:47:28;;;;;;;;;;;;;;;;;;5032865;28;20013;-76
2022/04/24 09:49:55;;;;;;;;;;;;;;;;;;5038204;28;19956;-75
2022/04/24 09:52:24;;;;;;;;;;;;;;;;;;5056653;28;19964;-75
2022/04/24 09:54:51;;;;;;;;;;;;;;;;;;5054698;28;19952;-76
2022/04/24 09:57:17;;;;;;;;;;;;;;;;;;5014787;28;20394;-79
2022/04/24 09:59:43;;;;;;;;;;;;;;;;;;5052196;28;19964;-77
2022/04/24 10:02:09;;;;;;;;;;;;;;;;;;5038241;28;20024;-77
2022/04/24 10:04:36;;;;;;;;;;;;;;;;;;5053703;28;19940;-77
2022/04/24 10:07:02;;;;;;;;;;;;;;;;;;5033197;28;19959;-76
2022/04/24 10:09:28;;;;;;;;;;;;;;;;;;5041114;28;19955;-77
2022/04/24 10:11:54;;;;;;;;;;;;;;;;;;5054103;28;19952;-75
2022/04/24 10:14:20;;;;;;;;;;;;;;;;;;5053879;28;20385;-76
2022/04/24 10:16:46;;;;;;;;;;;;;;;;;;5052262;28;19960;-75
2022/04/24 10:19:13;;;;;;;;;;;;;;;;;;5041919;28;19920;-75
2022/04/24 10:21:39;;;;;;;;;;;;;;;;;;5037199;28;19960;-75
2022/04/24 10:24:05;;;;;;;;;;;;;;;;;;5048542;28;19928;-75
2022/04/24 10:26:31;;;;;;;;;;;;;;;;;;5036558;28;20033;-74
2022/04/24 10:28:57;;;;;;;;;;;;;;;;;;5034293;28;19956;-75
2022/04/24 10:31:24;;;;;;;;;;;;;;;;;;5031887;28;19964;-76
2022/04/24 10:33:54;;;;;;;;;;;;;;;;;;5035230;28;19979;-75
2022/04/24 10:36:21;;;;;;;;;;;;;;;;;;5037745;28;20028;-76
2022/04/24 10:38:47;;;;;;;;;;;;;;;;;;5038855;28;20411;-76
2022/04/24 10:41:13;;;;;;;;;;;;;;;;;;5039336;28;19971;-76
2022/04/24 10:43:39;;;;;;;;;;;;;;;;;;5051145;28;19952;-75
2022/04/24 10:46:05;;;;;;;;;;;;;;;;;;5026051;28;20325;-75
2022/04/24 10:48:35;;;;;;;;;;;;;;;;;;5056941;28;19968;-73
2022/04/24 10:51:01;;;;;;;;;;;;;;;;;;5034437;28;19956;-75
2022/04/24 10:53:29;;;;;;;;;;;;;;;;;;5059137;28;19920;-75
2022/04/24 10:55:55;;;;;;;;;;;;;;;;;;5043590;28;19987;-75
2022/04/24 10:58:22;;;;;;;;;;;;;;;;;;5036146;28;20070;-75
2022/04/24 11:00:48;;;;;;;;;;;;;;;;;;5050116;28;19967;-75
2022/04/24 11:03:14;;;;;;;;;;;;;;;;;;5044128;28;20325;-76
2022/04/24 11:05:40;;;;;;;;;;;;;;;;;;5017712;28;19961;-75
2022/04/24 11:08:07;;;;;;;;;;;;;;;;;;5035455;28;20071;-75
2022/04/24 11:10:33;;;;;;;;;;;;;;;;;;5026324;28;20381;-75
2022/04/24 11:12:59;;;;;;;;;;;;;;;;;;5033629;28;20021;-75
2022/04/24 11:15:25;;;;;;;;;;;;;;;;;;5045631;28;19968;-76
2022/04/24 11:17:52;;;;;;;;;;;;;;;;;;5040861;28;19944;-76
2022/04/24 11:20:19;;;;;;;;;;;;;;;;;;5042525;28;19975;-81
2022/04/24 11:22:46;;;;;;;;;;;;;;;;;;5048210;28;19967;-83
2022/04/24 11:25:12;;;;;;;;;;;;;;;;;;5034475;28;19979;-77
2022/04/24 11:27:38;;;;;;;;;;;;;;;;;;5053920;28;19956;-76
2022/04/24 11:30:04;;;;;;;;;;;;;;;;;;5044475;28;20305;-76
2022/04/24 11:32:30;;;;;;;;;;;;;;;;;;5032922;28;19975;-77
2022/04/24 11:34:57;;;;;;;;;;;;;;;;;;5040195;28;19948;-77
2022/04/24 11:37:23;;;;;;;;;;;;;;;;;;5041088;28;19952;-81
2022/04/24 11:39:49;;;;;;;;;;;;;;;;;;5040420;28;21035;-80
2022/04/24 11:42:16;;;;;;;;;;;;;;;;;;5035889;28;19971;-78
2022/04/24 11:50:14;;;;;;;;;;;;;;;;;;5051060;28;19968;-78
2022/04/24 11:52:41;;;;;;;;;;;;;;;;;;5046272;28;19978;-78
2022/04/24 11:55:07;;;;;;;;;;;;;;;;;;5048225;28;19960;-78
2022/04/24 11:57:33;;;;;;;;;;;;;;;;;;5033071;28;19960;-76
2022/04/24 11:59:59;;;;;;;;;;;;;;;;;;5045030;28;19940;-78
2022/04/24 12:02:25;;;;;;;;;;;;;;;;;;5043782;28;20584;-78
2022/04/24 12:04:52;;;;;;;;;;;;;;;;;;5052035;28;20791;-78
2022/04/24 12:07:18;;;;;;;;;;;;;;;;;;5044887;28;20052;-79
2022/04/24 12:09:44;;;;;;;;;;;;;;;;;;5046056;28;19980;-78
2022/04/24 12:12:10;;;;;;;;;;;;;;;;;;5046125;28;19956;-78
2022/04/24 12:14:37;;;;;;;;;;;;;;;;;;5047989;28;19952;-78
2022/04/24 12:17:03;;;;;;;;;;;;;;;;;;5050317;28;19952;-78
2022/04/24 12:19:29;;;;;;;;;;;;;;;;;;5051336;28;20395;-78
2022/04/24 12:21:55;;;;;;;;;;;;;;;;;;5041337;28;19949;-78
2022/04/24 12:24:22;;;;;;;;;;;;;;;;;;5042717;28;19967;-78
2022/04/24 12:26:48;;;;;;;;;;;;;;;;;;5054177;28;19955;-78
2022/04/24 12:29:17;;;;;;;;;;;;;;;;;;5050745;28;19970;-79
2022/04/24 12:31:43;;;;;;;;;;;;;;;;;;5050085;28;21636;-79
2022/04/24 12:34:09;;;;;;;;;;;;;;;;;;5062657;28;19951;-78
2022/04/24 12:36:36;;;;;;;;;;;;;;;;;;5047758;28;19940;-79
2022/04/24 12:39:04;;;;;;;;;;;;;;;;;;5055262;28;20462;-77
2022/04/24 12:41:30;;;;;;;;;;;;;;;;;;5045439;28;19968;-77
2022/04/24 12:43:56;;;;;;;;;;;;;;;;;;5044677;28;19948;-77
2022/04/24 12:46:22;;;;;;;;;;;;;;;;;;5051947;28;19947;-77
2022/04/24 12:48:49;;;;;;;;;;;;;;;;;;5048770;28;19940;-77
2022/04/24 12:51:15;;;;;;;;;;;;;;;;;;5040307;28;19937;-77
2022/04/24 12:53:41;;;;;;;;;;;;;;;;;;5049508;28;19959;-78
2022/04/24 12:56:07;;;;;;;;;;;;;;;;;;5039804;28;19956;-78
2022/04/24 12:58:33;;;;;;;;;;;;;;;;;;5035850;28;19952;-77
2022/04/24 13:01:00;;;;;;;;;;;;;;;;;;5041945;28;19948;-76
2022/04/24 13:03:26;;;;;;;;;;;;;;;;;;5033900;28;20333;-78
2022/04/24 13:05:52;;;;;;;;;;;;;;;;;;5031868;28;19959;-77
2022/04/24 13:08:19;;;;;;;;;;;;;;;;;;5053209;28;19980;-78
2022/04/24 13:10:45;;;;;;;;;;;;;;;;;;5053570;28;19913;-78
2022/04/24 13:13:11;;;;;;;;;;;;;;;;;;5044088;28;19964;-78
2022/04/24 13:15:38;;;;;;;;;;;;;;;;;;5041450;28;19949;-77
2022/04/24 13:18:07;;;;;;;;;;;;;;;;;;5038594;28;19955;-77
2022/04/24 13:20:36;;;;;;;;;;;;;;;;;;5049310;28;20339;-77
2022/04/24 13:23:02;;;;;;;;;;;;;;;;;;5036854;28;19955;-78
2022/04/24 13:25:28;;;;;;;;;;;;;;;;;;5038673;28;20450;-78
2022/04/24 13:27:55;;;;;;;;;;;;;;;;;;5050780;28;20464;-78
2022/04/24 13:30:22;;;;;;;;;;;;;;;;;;5041469;28;19961;-77
2022/04/24 13:32:48;;;;;;;;;;;;;;;;;;5065752;28;19964;-77
2022/04/24 13:35:14;;;;;;;;;;;;;;;;;;5061332;28;20355;-78
2022/04/24 13:40:26;;;;;;;;;;;;;;;;;;5050862;28;19951;-78
2022/04/24 13:42:53;;;;;;;;;;;;;;;;;;5040424;28;19925;-78
2022/04/24 13:45:19;;;;;;;;;;;;;;;;;;5033240;28;19917;-78
2022/04/24 13:47:45;;;;;;;;;;;;;;;;;;5045030;28;20014;-80
2022/04/24 13:50:12;;;;;;;;;;;;;;;;;;5037385;28;19949;-77
2022/04/24 13:52:38;;;;;;;;;;;;;;;;;;5049898;28;19960;-78
2022/04/24 13:55:04;;;;;;;;;;;;;;;;;;5043875;28;20006;-78
2022/04/24 13:57:30;;;;;;;;;;;;;;;;;;5048856;28;20089;-77
2022/04/24 13:59:57;;;;;;;;;;;;;;;;;;5064428;28;19955;-78
2022/04/24 14:02:23;;;;;;;;;;;;;;;;;;5035415;28;19960;-78
2022/04/24 14:04:49;;;;;;;;;;;;;;;;;;5047621;28;19951;-78
2022/04/24 14:07:15;;;;;;;;;;;;;;;;;;5041087;28;19949;-78
2022/04/24 14:09:42;;;;;;;;;;;;;;;;;;5047130;28;19982;-77
2022/04/24 14:12:12;;;;;;;;;;;;;;;;;;5037071;28;19963;-78
2022/04/24 14:14:38;;;;;;;;;;;;;;;;;;5048941;28;20017;-78
2022/04/24 14:17:04;;;;;;;;;;;;;;;;;;5051803;28;19952;-79
2022/04/24 14:19:30;;;;;;;;;;;;;;;;;;5049114;28;20084;-77
2022/04/24 14:21:56;;;;;;;;;;;;;;;;;;5058379;28;19968;-78
2022/04/24 14:24:23;;;;;;;;;;;;;;;;;;5049071;28;19920;-78
2022/04/24 14:26:51;;;;;;;;;;;;;;;;;;5049473;28;19952;-78
2022/04/24 14:29:23;;;;;;;;;;;;;;;;;;5043777;28;19951;-79
2022/04/24 14:31:52;;;;;;;;;;;;;;;;;;5041421;28;19927;-79
2022/04/24 14:34:19;;;;;;;;;;;;;;;;;;5038064;28;19952;-78
2022/04/24 14:36:45;;;;;;;;;;;;;;;;;;5065487;28;19978;-79
2022/04/24 14:39:11;;;;;;;;;;;;;;;;;;5041313;28;19976;-78
2022/04/24 14:41:40;;;;;;;;;;;;;;;;;;5048539;28;19970;-79
2022/04/24 14:44:07;;;;;;;;;;;;;;;;;;5028612;28;19948;-78
2022/04/24 14:57:32;;;;;;;;;;;;;;;;;;5041689;28;19952;-78
2022/04/24 14:59:58;;;;;;;;;;;;;;;;;;5062250;28;19970;-77
2022/04/24 15:02:25;;;;;;;;;;;;;;;;;;5047928;28;20027;-77
2022/04/24 15:04:51;;;;;;;;;;;;;;;;;;5048978;28;19961;-79
2022/04/24 15:07:18;;;;;;;;;;;;;;;;;;5054657;28;20327;-79
2022/04/24 15:09:44;;;;;;;;;;;;;;;;;;5043073;28;19913;-78
2022/04/24 15:12:10;;;;;;;;;;;;;;;;;;5052839;28;20662;-77
2022/04/24 15:14:36;;;;;;;;;;;;;;;;;;5043977;28;19967;-77
2022/04/24 15:17:02;;;;;;;;;;;;;;;;;;5038673;28;19983;-77
2022/04/24 15:19:28;;;;;;;;;;;;;;;;;;5037840;28;20008;-77
2022/04/24 15:21:55;;;;;;;;;;;;;;;;;;5046842;28;19940;-78
2022/04/24 15:24:21;;;;;;;;;;;;;;;;;;5060664;28;20013;-78
2022/04/24 15:26:50;;;;;;;;;;;;;;;;;;5053693;28;19952;-78
2022/04/24 15:29:16;;;;;;;;;;;;;;;;;;5049734;28;19955;-78
2022/04/24 15:31:43;;;;;;;;;;;;;;;;;;5037740;28;19952;-78
2022/04/24 15:34:09;;;;;;;;;;;;;;;;;;5048580;28;19986;-78
2022/04/24 15:36:36;;;;;;;;;;;;;;;;;;5047946;28;19963;-78
2022/04/24 15:39:02;;;;;;;;;;;;;;;;;;5046475;28;20035;-78
2022/04/24 15:41:29;;;;;;;;;;;;;;;;;;5048585;28;20373;-78
2022/04/24 15:43:55;;;;;;;;;;;;;;;;;;5050975;28;19944;-77
2022/04/24 15:46:21;;;;;;;;;;;;;;;;;;5044668;28;19955;-78
2022/04/24 15:48:47;;;;;;;;;;;;;;;;;;5072751;28;19948;-78
2022/04/24 15:51:13;;;;;;;;;;;;;;;;;;5055040;28;19944;-78
2022/04/24 15:53:39;;;;;;;;;;;;;;;;;;5053102;28;19957;-78
2022/04/24 15:56:09;;;;;;;;;;;;;;;;;;5065628;28;19952;-78
2022/04/24 15:58:35;;;;;;;;;;;;;;;;;;5048017;28;19964;-77
2022/04/24 16:01:02;;;;;;;;;;;;;;;;;;5039543;28;19948;-78
2022/04/24 16:03:28;;;;;;;;;;;;;;;;;;5050565;28;20037;-78
2022/04/24 16:05:54;;;;;;;;;;;;;;;;;;5046897;28;20365;-78
2022/04/24 16:08:23;;;;;;;;;;;;;;;;;;5062227;28;20028;-79
2022/04/24 16:10:50;;;;;;;;;;;;;;;;;;5026857;28;20476;-76
2022/04/24 16:13:16;;;;;;;;;;;;;;;;;;5043048;28;19999;-77
2022/04/24 16:15:43;;;;;;;;;;;;;;;;;;5042080;28;19960;-77
2022/04/24 16:18:09;;;;;;;;;;;;;;;;;;5042256;28;20411;-78
2022/04/24 16:20:35;;;;;;;;;;;;;;;;;;5033480;28;19943;-77
2022/04/24 16:23:02;;;;;;;;;;;;;;;;;;5037999;28;19963;-78
2022/04/24 16:25:28;;;;;;;;;;;;;;;;;;5044840;28;19960;-78
2022/04/24 16:27:57;;;;;;;;;;;;;;;;;;5035867;28;19963;-78
2022/04/24 16:30:24;;;;;;;;;;;;;;;;;;5045375;28;19968;-78
2022/04/24 16:32:51;;;;;;;;;;;;;;;;;;5038362;28;19952;-78
2022/04/24 16:35:18;;;;;;;;;;;;;;;;;;5038998;28;20049;-78
2022/04/24 16:37:44;;;;;;;;;;;;;;;;;;5041379;28;19960;-78
2022/04/24 16:40:11;;;;;;;;;;;;;;;;;;5019902;28;20021;-79
2022/04/24 16:42:37;;;;;;;;;;;;;;;;;;5041561;28;19948;-78
2022/04/24 16:45:04;;;;;;;;;;;;;;;;;;5029332;28;19952;-78
2022/04/24 16:47:30;;;;;;;;;;;;;;;;;;5039826;28;19960;-79
2022/04/24 16:49:56;;;;;;;;;;;;;;;;;;5039272;28;19944;-79
2022/04/24 17:00:24;;;;;;;;;;;;;;;;;;5037269;28;19960;-78
2022/04/24 17:02:50;;;;;;;;;;;;;;;;;;5030617;28;19945;-78
2022/04/24 17:05:17;;;;;;;;;;;;;;;;;;5047633;28;19971;-76
2022/04/24 17:07:43;;;;;;;;;;;;;;;;;;5042888;28;21565;-77